Time;durP1;ratioP1;P1;durP2;ratioP2;P2;SDS_P1;SDS_P2;PMS_P1;PMS_P2;Temp;Humidity;BMP_temperature;BMP_pressure;BME280_temperature;BME280_humidity;BME280_pressure;Samples;Min_cycle;Max_cycle;Signal;HPM_P1;HPM_P2
2024/01/02 00:03:13;;;;;;;0.00;0.00;;;;;;;;;;644903;218;34646;-78
2024/01/02 00:08:35;;;;;;;0.00;0.00;;;;;;;;;;653575;218;33320;-79
2024/01/02 00:13:58;;;;;;;0.00;0.00;;;;;;;;;;653526;218;32415;-86
2024/01/02 00:19:20;;;;;;;0.00;0.00;;;;;;;;;;637882;217;32562;-82
2024/01/02 00:24:42;;;;;;;0.00;0.00;;;;;;;;;;645070;218;33292;-81
2024/01/02 00:30:05;;;;;;;0.00;0.00;;;;;;;;;;645116;218;32381;-80
2024/01/02 00:35:27;;;;;;;0.00;0.00;;;;;;;;;;645081;218;32386;-81
2024/01/02 00:40:50;;;;;;;0.00;0.00;;;;;;;;;;645090;217;33364;-79
2024/01/02 00:46:12;;;;;;;0.00;0.00;;;;;;;;;;645061;218;32335;-79
2024/01/02 00:51:33;;;;;;;0.00;0.00;;;;;;;;;;645051;218;33334;-83
2024/01/02 00:56:56;;;;;;;0.00;0.00;;;;;;;;;;653581;217;34377;-81
2024/01/02 01:02:19;;;;;;;0.00;0.00;;;;;;;;;;645046;217;32449;-81
2024/01/02 01:07:40;;;;;;;0.00;0.00;;;;;;;;;;645074;218;34330;-82
2024/01/02 01:13:03;;;;;;;0.10;0.10;;;;;;;;;;653571;218;32395;-82
2024/01/02 01:18:26;;;;;;;0.00;0.00;;;;;;;;;;645076;218;34286;-86
2024/01/02 01:23:48;;;;;;;0.00;0.00;;;;;;;;;;653574;218;32725;-83
2024/01/02 01:29:10;;;;;;;0.00;0.00;;;;;;;;;;653546;218;33325;-84
2024/01/02 01:34:34;;;;;;;0.00;0.00;;;;;;;;;;653570;217;32385;-85
2024/01/02 01:39:57;;;;;;;0.00;0.00;;;;;;;;;;653605;217;34382;-83
2024/01/02 01:45:19;;;;;;;0.00;0.00;;;;;;;;;;645061;217;32378;-82
2024/01/02 01:50:41;;;;;;;0.00;0.00;;;;;;;;;;653619;218;33357;-81
2024/01/02 01:56:03;;;;;;;0.00;0.00;;;;;;;;;;653565;218;34313;-83
2024/01/02 02:01:25;;;;;;;0.00;0.00;;;;;;;;;;645090;217;34341;-85
2024/01/02 02:06:49;;;;;;;0.00;0.00;;;;;;;;;;645036;217;32369;-85
2024/01/02 02:12:11;;;;;;;0.00;0.00;;;;;;;;;;645085;218;34664;-79
2024/01/02 02:20:13;;;;;;;0.00;0.00;;;;;;;;;;645046;218;32504;-79
2024/01/02 02:25:38;;;;;;;0.00;0.00;;;;;;;;;;644827;218;32405;-80
2024/01/02 02:31:01;;;;;;;0.00;0.00;;;;;;;;;;653560;218;32381;-82
2024/01/02 02:36:23;;;;;;;0.00;0.00;;;;;;;;;;653559;217;35314;-80
2024/01/02 02:41:46;;;;;;;0.00;0.00;;;;;;;;;;645104;217;35325;-86
2024/01/02 02:47:10;;;;;;;0.00;0.00;;;;;;;;;;653582;218;35321;-84
2024/01/02 02:52:31;;;;;;;0.00;0.00;;;;;;;;;;653662;218;34215;-83
2024/01/02 02:57:53;;;;;;;0.00;0.00;;;;;;;;;;653553;213;32379;-83
2024/01/02 03:03:18;;;;;;;0.00;0.00;;;;;;;;;;660745;215;32395;-83
2024/01/02 03:08:40;;;;;;;0.00;0.00;;;;;;;;;;660763;215;33366;-88
2024/01/02 03:14:03;;;;;;;0.00;0.00;;;;;;;;;;650256;212;32506;-81
2024/01/02 03:19:26;;;;;;;0.00;0.00;;;;;;;;;;660759;215;32378;-82
2024/01/02 03:24:48;;;;;;;0.00;0.00;;;;;;;;;;659644;215;32716;-83
2024/01/02 03:30:10;;;;;;;0.00;0.00;;;;;;;;;;658493;216;34322;-82
2024/01/02 03:35:35;;;;;;;0.00;0.00;;;;;;;;;;658479;216;33354;-83
2024/01/02 03:40:57;;;;;;;0.00;0.00;;;;;;;;;;658511;216;34318;-85
2024/01/02 03:46:21;;;;;;;0.00;0.00;;;;;;;;;;650939;218;35308;-83
2024/01/02 03:51:43;;;;;;;0.00;0.00;;;;;;;;;;660764;215;34387;-85
2024/01/02 03:57:07;;;;;;;0.00;0.00;;;;;;;;;;658501;216;32389;-87
2024/01/02 04:02:32;;;;;;;0.00;0.00;;;;;;;;;;662854;215;32345;-81
2024/01/02 04:07:55;;;;;;;0.00;0.00;;;;;;;;;;660740;215;32357;-82
2024/01/02 04:13:17;;;;;;;0.00;0.00;;;;;;;;;;660769;214;32663;-85
2024/01/02 04:18:40;;;;;;;0.00;0.00;;;;;;;;;;658512;216;32665;-84
2024/01/02 04:24:02;;;;;;;0.00;0.00;;;;;;;;;;660367;215;35276;-86
2024/01/02 04:29:25;;;;;;;0.00;0.00;;;;;;;;;;660800;215;34336;-84
2024/01/02 04:34:47;;;;;;;0.00;0.00;;;;;;;;;;660771;215;32386;-84
2024/01/02 04:40:10;;;;;;;0.00;0.00;;;;;;;;;;660770;215;32388;-85
2024/01/02 04:45:34;;;;;;;0.00;0.00;;;;;;;;;;650123;219;32723;-80
2024/01/02 04:50:56;;;;;;;0.00;0.00;;;;;;;;;;660843;214;34314;-85
2024/01/02 04:56:18;;;;;;;0.00;0.00;;;;;;;;;;650941;219;32421;-84
2024/01/02 05:01:41;;;;;;;0.00;0.00;;;;;;;;;;660783;215;32345;-85
2024/01/02 05:07:03;;;;;;;0.00;0.00;;;;;;;;;;660764;215;34353;-83
2024/01/02 05:12:25;;;;;;;0.00;0.00;;;;;;;;;;660758;215;33418;-83
2024/01/02 05:17:47;;;;;;;0.00;0.00;;;;;;;;;;660826;215;34356;-83
2024/01/02 05:23:10;;;;;;;0.00;0.00;;;;;;;;;;660771;215;34293;-83
2024/01/02 05:28:33;;;;;;;0.00;0.00;;;;;;;;;;650134;218;32384;-83
2024/01/02 05:33:56;;;;;;;0.00;0.00;;;;;;;;;;658493;215;32422;-83
2024/01/02 05:39:17;;;;;;;0.00;0.00;;;;;;;;;;660731;215;32336;-83
2024/01/02 05:44:39;;;;;;;0.00;0.00;;;;;;;;;;658343;215;36300;-83
2024/01/02 05:50:02;;;;;;;0.00;0.00;;;;;;;;;;660766;215;32365;-84
2024/01/02 05:55:24;;;;;;;0.00;0.00;;;;;;;;;;660773;215;53831;-83
2024/01/02 06:00:47;;;;;;;0.00;0.00;;;;;;;;;;660743;215;32323;-83
2024/01/02 06:06:10;;;;;;;0.00;0.00;;;;;;;;;;660804;215;35257;-84
2024/01/02 06:11:32;;;;;;;0.00;0.00;;;;;;;;;;660703;215;33359;-83
2024/01/02 06:16:54;;;;;;;0.00;0.00;;;;;;;;;;658632;215;33120;-84
2024/01/02 06:22:17;;;;;;;0.00;0.00;;;;;;;;;;660749;215;53838;-84
2024/01/02 06:27:40;;;;;;;0.00;0.00;;;;;;;;;;660113;216;32313;-84
2024/01/02 06:33:02;;;;;;;0.00;0.00;;;;;;;;;;660757;215;32357;-84
2024/01/02 06:38:24;;;;;;;0.00;0.00;;;;;;;;;;660724;215;35273;-85
2024/01/02 06:43:46;;;;;;;0.00;0.00;;;;;;;;;;658504;216;34766;-85
2024/01/02 06:49:11;;;;;;;0.00;0.00;;;;;;;;;;660713;215;32391;-84
2024/01/02 06:54:33;;;;;;;0.00;0.00;;;;;;;;;;660769;215;33345;-84
2024/01/02 06:59:58;;;;;;;0.00;0.00;;;;;;;;;;660698;212;32366;-84
2024/01/02 07:05:23;;;;;;;0.00;0.00;;;;;;;;;;660793;215;32349;-86
2024/01/02 07:10:44;;;;;;;0.00;0.00;;;;;;;;;;650115;219;32370;-84
2024/01/02 07:16:08;;;;;;;0.00;0.00;;;;;;;;;;658486;215;34264;-84
2024/01/02 07:21:30;;;;;;;0.00;0.00;;;;;;;;;;650194;219;34360;-84
2024/01/02 07:26:52;;;;;;;0.00;0.00;;;;;;;;;;658261;216;32407;-85
2024/01/02 07:32:14;;;;;;;0.00;0.00;;;;;;;;;;658573;216;34319;-84
2024/01/02 07:37:36;;;;;;;0.00;0.00;;;;;;;;;;660790;215;32326;-84
2024/01/02 07:42:58;;;;;;;0.00;0.00;;;;;;;;;;660737;212;32378;-84
2024/01/02 07:48:23;;;;;;;0.00;0.00;;;;;;;;;;658489;216;32354;-84
2024/01/02 07:53:45;;;;;;;0.10;0.10;;;;;;;;;;658426;216;32380;-84
2024/01/02 08:01:36;;;;;;;0.00;0.00;;;;;;;;;;660391;215;32305;-84
2024/01/02 08:07:01;;;;;;;0.00;0.00;;;;;;;;;;660676;214;32361;-84
2024/01/02 08:12:22;;;;;;;0.00;0.00;;;;;;;;;;660745;215;32327;-84
2024/01/02 08:17:44;;;;;;;0.00;0.00;;;;;;;;;;660709;215;43121;-83
2024/01/02 08:23:06;;;;;;;0.00;0.00;;;;;;;;;;660744;215;32380;-84
2024/01/02 08:28:29;;;;;;;0.00;0.00;;;;;;;;;;660751;215;32336;-84
2024/01/02 08:33:50;;;;;;;0.00;0.00;;;;;;;;;;660726;215;32718;-85
2024/01/02 08:39:14;;;;;;;0.00;0.00;;;;;;;;;;658561;216;35274;-85
2024/01/02 08:44:35;;;;;;;0.00;0.00;;;;;;;;;;650998;219;35328;-84
2024/01/02 08:49:58;;;;;;;0.00;0.00;;;;;;;;;;660834;215;34281;-84
2024/01/02 08:55:20;;;;;;;0.00;0.00;;;;;;;;;;657538;214;33503;-83
2024/01/02 09:00:42;;;;;;;0.00;0.00;;;;;;;;;;643106;219;32501;-86
2024/01/02 09:06:05;;;;;;;0.00;0.00;;;;;;;;;;657357;214;32412;-84
2024/01/02 09:11:27;;;;;;;0.00;0.00;;;;;;;;;;635269;218;32674;-85
2024/01/02 09:16:49;;;;;;;0.00;0.00;;;;;;;;;;657658;214;32332;-81
2024/01/02 09:22:12;;;;;;;0.00;0.00;;;;;;;;;;655085;215;32406;-79
2024/01/02 09:27:34;;;;;;;0.00;0.00;;;;;;;;;;658506;214;32356;-79
2024/01/02 09:32:56;;;;;;;0.00;0.00;;;;;;;;;;660750;214;34355;-79
2024/01/02 09:38:18;;;;;;;0.00;0.00;;;;;;;;;;658457;212;32382;-79
2024/01/02 09:43:45;;;;;;;0.00;0.00;;;;;;;;;;656726;215;33355;-80
2024/01/02 09:49:06;;;;;;;0.00;0.00;;;;;;;;;;655684;215;34264;-79
2024/01/02 09:54:31;;;;;;;0.00;0.00;;;;;;;;;;653927;215;32551;-79
2024/01/02 09:59:54;;;;;;;0.03;0.03;;;;;;;;;;651883;212;32412;-79
2024/01/02 10:05:22;;;;;;;0.00;0.00;;;;;;;;;;652791;216;32350;-79
2024/01/02 10:10:48;;;;;;;0.00;0.00;;;;;;;;;;647265;215;32359;-79
2024/01/02 10:16:14;;;;;;;0.00;0.00;;;;;;;;;;661375;211;32378;-79
2024/01/02 10:21:38;;;;;;;0.00;0.00;;;;;;;;;;652100;216;32506;-79
2024/01/02 10:27:03;;;;;;;0.00;0.00;;;;;;;;;;652229;215;32333;-78
2024/01/02 10:32:26;;;;;;;0.10;0.10;;;;;;;;;;659005;213;33629;-79
2024/01/02 10:37:49;;;;;;;0.00;0.00;;;;;;;;;;654737;216;32350;-80
2024/01/02 10:43:11;;;;;;;0.00;0.00;;;;;;;;;;654508;212;32632;-80
2024/01/02 10:48:34;;;;;;;0.00;0.00;;;;;;;;;;657997;214;32355;-80
2024/01/02 10:53:57;;;;;;;0.00;0.00;;;;;;;;;;663973;213;32331;-80
2024/01/02 10:59:22;;;;;;;0.00;0.00;;;;;;;;;;647354;214;32847;-80
2024/01/02 11:04:43;;;;;;;0.00;0.00;;;;;;;;;;659851;215;32358;-79
2024/01/02 11:10:08;;;;;;;0.00;0.00;;;;;;;;;;662454;212;32842;-79
2024/01/02 11:15:28;;;;;;;0.00;0.00;;;;;;;;;;644309;216;53969;-78
2024/01/02 11:20:51;;;;;;;0.00;0.00;;;;;;;;;;659792;212;32389;-79
2024/01/02 11:26:13;;;;;;;0.00;0.00;;;;;;;;;;652513;212;32737;-78
2024/01/02 11:31:35;;;;;;;0.00;0.00;;;;;;;;;;651842;214;32524;-80
2024/01/02 11:36:58;;;;;;;0.00;0.00;;;;;;;;;;648756;216;43018;-79
2024/01/02 11:42:21;;;;;;;0.00;0.00;;;;;;;;;;656733;212;32515;-79
2024/01/02 11:47:44;;;;;;;0.00;0.00;;;;;;;;;;659555;212;35267;-79
2024/01/02 11:53:07;;;;;;;0.10;0.10;;;;;;;;;;651797;215;32901;-78
2024/01/02 11:58:32;;;;;;;0.00;0.00;;;;;;;;;;661162;215;35747;-79
2024/01/02 12:03:56;;;;;;;0.00;0.00;;;;;;;;;;659654;213;43023;-79
2024/01/02 12:09:19;;;;;;;0.00;0.00;;;;;;;;;;650281;216;32596;-79
2024/01/02 12:14:42;;;;;;;0.00;0.00;;;;;;;;;;648401;215;35808;-78
2024/01/02 12:20:05;;;;;;;0.00;0.00;;;;;;;;;;648110;216;34501;-78
2024/01/02 12:25:28;;;;;;;0.00;0.00;;;;;;;;;;652870;216;32394;-78
2024/01/02 12:30:50;;;;;;;0.00;0.00;;;;;;;;;;648474;216;32518;-78
2024/01/02 12:36:15;;;;;;;0.00;0.00;;;;;;;;;;647853;214;33301;-78
2024/01/02 12:41:44;;;;;;;0.00;0.00;;;;;;;;;;658032;216;53783;-78
2024/01/02 12:47:05;;;;;;;0.00;0.00;;;;;;;;;;650725;216;32538;-78
2024/01/02 12:52:27;;;;;;;0.00;0.00;;;;;;;;;;658326;214;32430;-78
2024/01/02 12:57:52;;;;;;;0.00;0.00;;;;;;;;;;648056;216;32639;-79
2024/01/02 13:03:15;;;;;;;0.00;0.00;;;;;;;;;;639351;218;32581;-78
2024/01/02 13:08:43;;;;;;;0.00;0.00;;;;;;;;;;643674;216;32564;-79
2024/01/02 13:14:05;;;;;;;0.00;0.00;;;;;;;;;;644972;218;32815;-79
2024/01/02 13:19:27;;;;;;;0.00;0.00;;;;;;;;;;641931;217;32379;-79
2024/01/02 13:24:50;;;;;;;0.00;0.00;;;;;;;;;;644828;218;32349;-79
2024/01/02 13:30:12;;;;;;;0.00;0.00;;;;;;;;;;635175;218;32546;-79
2024/01/02 13:35:33;;;;;;;0.00;0.00;;;;;;;;;;641420;217;32732;-78
2024/01/02 13:40:55;;;;;;;0.00;0.00;;;;;;;;;;644308;217;32337;-78
2024/01/02 13:46:21;;;;;;;0.00;0.00;;;;;;;;;;644682;218;34289;-78
2024/01/02 13:51:45;;;;;;;0.00;0.00;;;;;;;;;;650889;218;32369;-78
2024/01/02 13:57:07;;;;;;;0.00;0.00;;;;;;;;;;644170;218;32341;-78
2024/01/02 14:39:49;;;;;;;0.00;0.00;;;;;;;;;;642930;217;35496;-78
2024/01/02 16:17:53;;;;;;;0.10;0.10;;;;;;;;;;644987;213;32426;-83
2024/01/02 20:06:54;;;;;;;0.10;0.10;;;;;;;;;;645129;218;35357;-81
2024/01/02 20:12:30;;;;;;;0.00;0.00;;;;;;;;;;645124;218;35334;-81
